<?xml version="1.0" encoding="utf-8"?>
<gpx xmlns:xsi="http://www.w3.org/2001/XMLSchema-instance" xmlns:xsd="http://www.w3.org/2001/XMLSchema" version="1.1" creator="Shapelink.com" xmlns="http://www.topografix.com/GPX/1/1" xmlns:gpxtpx="http://www.garmin.com/xmlschemas/TrackPointExtension/v1">
  <metadata>
    <name>Övrigt 1.18 km, 2020-07-29</name>
    <desc></desc>
    <author><name>Marian Moron</name></author> 
    <time>2020-07-29T21:04:29Z</time>
  </metadata>
  <trk>
    <name>Övrigt 1.18 km, 2020-07-29</name>
    <trkseg>
      <trkpt lat="51.229945566691" lon="4.458191123528">
        <ele>2</ele>
        <time>2020-07-29T21:04:29Z</time>
      </trkpt>
      <trkpt lat="51.22995235603" lon="4.45846085307">
        <ele>3.2</ele>
        <time>2020-07-29T21:04:52Z</time>
      </trkpt>
      <trkpt lat="51.229979764843" lon="4.458626982328">
        <ele>6.4</ele>
        <time>2020-07-29T21:05:07Z</time>
      </trkpt>
      <trkpt lat="51.23001941123" lon="4.458857065483">
        <ele>7.4</ele>
        <time>2020-07-29T21:05:28Z</time>
      </trkpt>
      <trkpt lat="51.230351753565" lon="4.459007772045">
        <ele>10</ele>
        <time>2020-07-29T21:06:10Z</time>
      </trkpt>
      <trkpt lat="51.230469686898" lon="4.459411695806">
        <ele>7.6</ele>
        <time>2020-07-29T21:06:40Z</time>
      </trkpt>
      <trkpt lat="51.230535233356" lon="4.459885189337">
        <ele>0</ele>
        <time>2020-07-29T21:07:12Z</time>
      </trkpt>
      <trkpt lat="51.230605389859" lon="4.460422720584">
        <ele>0</ele>
        <time>2020-07-29T21:08:02Z</time>
      </trkpt>
      <trkpt lat="51.230435069651" lon="4.460813484762">
        <ele>0</ele>
        <time>2020-07-29T21:09:14Z</time>
      </trkpt>
      <trkpt lat="51.229993092064" lon="4.460951534655">
        <ele>0</ele>
        <time>2020-07-29T21:10:03Z</time>
      </trkpt>
      <trkpt lat="51.22993140128" lon="4.460953462492">
        <ele>0</ele>
        <time>2020-07-29T21:10:12Z</time>
      </trkpt>
      <trkpt lat="51.229528734804" lon="4.461108443823">
        <ele>0</ele>
        <time>2020-07-29T21:11:08Z</time>
      </trkpt>
      <trkpt lat="51.229454890265" lon="4.461186395493">
        <ele>0</ele>
        <time>2020-07-29T21:11:19Z</time>
      </trkpt>
      <trkpt lat="51.229212653355" lon="4.461227131527">
        <ele>0</ele>
        <time>2020-07-29T21:11:41Z</time>
      </trkpt>
      <trkpt lat="51.228873186405" lon="4.461264430982">
        <ele>0.2</ele>
        <time>2020-07-29T21:12:10Z</time>
      </trkpt>
      <trkpt lat="51.228417546321" lon="4.461341041548">
        <ele>5.4</ele>
        <time>2020-07-29T21:12:48Z</time>
      </trkpt>
      <trkpt lat="51.228492899602" lon="4.461167200942">
        <ele>0</ele>
        <time>2020-07-29T21:13:29Z</time>
      </trkpt>
      <trkpt lat="51.2285299476" lon="4.461164770191">
        <ele>0</ele>
        <time>2020-07-29T21:13:31Z</time>
      </trkpt>
      <trkpt lat="51.228869582188" lon="4.461173571186">
        <ele>5.8</ele>
        <time>2020-07-29T21:14:01Z</time>
      </trkpt>
      <trkpt lat="51.229316588915" lon="4.461056559862">
        <ele>14.2</ele>
        <time>2020-07-29T21:14:41Z</time>
      </trkpt>
      <trkpt lat="51.229434186972" lon="4.460935776683">
        <ele>14.4</ele>
        <time>2020-07-29T21:14:56Z</time>
      </trkpt>
      <trkpt lat="51.229652703105" lon="4.460909457517">
        <ele>6</ele>
        <time>2020-07-29T21:15:25Z</time>
      </trkpt>
      <trkpt lat="51.229702240134" lon="4.460843240507">
        <ele>4.4</ele>
        <time>2020-07-29T21:15:31Z</time>
      </trkpt>
      <trkpt lat="51.229739707227" lon="4.460825889974">
        <ele>3.8</ele>
        <time>2020-07-29T21:15:34Z</time>
      </trkpt>
      <trkpt lat="51.230082610756" lon="4.46078431575">
        <ele>9.2</ele>
        <time>2020-07-29T21:16:10Z</time>
      </trkpt>
      <trkpt lat="51.230157628761" lon="4.460766043208">
        <ele>9.4</ele>
        <time>2020-07-29T21:16:20Z</time>
      </trkpt>
      <trkpt lat="51.230558115943" lon="4.460570158205">
        <ele>10.2</ele>
        <time>2020-07-29T21:17:00Z</time>
      </trkpt>
      <trkpt lat="51.230482595024" lon="4.459868509356">
        <ele>5.2</ele>
        <time>2020-07-29T21:17:38Z</time>
      </trkpt>
      <trkpt lat="51.230474632219" lon="4.45984302838">
        <ele>5.2</ele>
        <time>2020-07-29T21:17:40Z</time>
      </trkpt>
      <trkpt lat="51.230477146789" lon="4.459600372375">
        <ele>4.4</ele>
        <time>2020-07-29T21:17:53Z</time>
      </trkpt>
      <trkpt lat="51.230456359677" lon="4.459556870314">
        <ele>4.8</ele>
        <time>2020-07-29T21:17:56Z</time>
      </trkpt>
      <trkpt lat="51.230577310494" lon="4.458921941389">
        <ele>1.6</ele>
        <time>2020-07-29T21:18:33Z</time>
      </trkpt>
      <trkpt lat="51.230625506419" lon="4.458772827388">
        <ele>0.2</ele>
        <time>2020-07-29T21:18:46Z</time>
      </trkpt>
      <trkpt lat="51.230717539681" lon="4.458663192136">
        <ele>2.6</ele>
        <time>2020-07-29T21:19:04Z</time>
      </trkpt>
      <trkpt lat="51.230784427243" lon="4.458598483868">
        <ele>4.6</ele>
        <time>2020-07-29T21:19:22Z</time>
      </trkpt>
      <trkpt lat="51.231198493103" lon="4.458427409289">
        <ele>3.8</ele>
        <time>2020-07-29T21:20:38Z</time>
      </trkpt>
      <trkpt lat="51.231224476993" lon="4.458388181997">
        <ele>3.6</ele>
        <time>2020-07-29T21:20:42Z</time>
      </trkpt>
      <trkpt lat="51.231230009047" lon="4.458267398818">
        <ele>2.6</ele>
        <time>2020-07-29T21:21:01Z</time>
      </trkpt>
      <trkpt lat="51.231184160054" lon="4.45780371211">
        <ele>0.8</ele>
        <time>2020-07-29T21:21:40Z</time>
      </trkpt>
      <trkpt lat="51.231061951952" lon="4.457643282544">
        <ele>0</ele>
        <time>2020-07-29T21:22:17Z</time>
      </trkpt>
      <trkpt lat="51.230968577586" lon="4.457687538976">
        <ele>0</ele>
        <time>2020-07-29T21:22:26Z</time>
      </trkpt>
      <trkpt lat="51.230577729589" lon="4.45781544677">
        <ele>0</ele>
        <time>2020-07-29T21:23:08Z</time>
      </trkpt>
      <trkpt lat="51.23010658299" lon="4.457842352669">
        <ele>1.2</ele>
        <time>2020-07-29T21:23:52Z</time>
      </trkpt>
      <trkpt lat="51.229673322579" lon="4.457961543287">
        <ele>3.6</ele>
        <time>2020-07-29T21:24:40Z</time>
      </trkpt>
    </trkseg>
  </trk>
</gpx>